Time;durP1;ratioP1;P1;durP2;ratioP2;P2;SDS_P1;SDS_P2;PMS_P1;PMS_P2;Temp;Humidity;BMP_temperature;BMP_pressure;BME280_temperature;BME280_humidity;BME280_pressure;Samples;Min_cycle;Max_cycle;Signal;HPM_P1;HPM_P2
2022/07/29 00:01:23;;;;;;;8.65;3.12;;;;;;;14.18;53.08;100493.39;2074415;84;21846;-75
2022/07/29 00:04:24;;;;;;;4.58;3.08;;;;;;;14.10;53.25;100485.78;2072721;84;21097;-75
2022/07/29 00:07:25;;;;;;;7.00;3.33;;;;;;;14.12;53.41;100494.95;2072025;85;21020;-75
2022/07/29 00:10:27;;;;;;;6.40;3.00;;;;;;;14.09;53.52;100490.80;2072577;84;21081;-75
2022/07/29 00:13:28;;;;;;;5.40;3.50;;;;;;;14.04;53.64;100492.35;2072474;85;21037;-75
2022/07/29 00:16:29;;;;;;;8.63;3.35;;;;;;;13.98;53.85;100497.91;2073304;85;20981;-75
2022/07/29 00:19:30;;;;;;;8.73;3.37;;;;;;;13.98;53.89;100495.74;2073686;84;21064;-75
2022/07/29 00:22:31;;;;;;;5.87;3.10;;;;;;;13.98;54.14;100497.08;2073483;85;21122;-75
2022/07/29 00:25:33;;;;;;;5.53;3.30;;;;;;;13.88;54.20;100487.97;2048442;86;21113;-75
2022/07/29 00:28:34;;;;;;;12.50;3.22;;;;;;;13.83;54.43;100488.53;2074933;84;21508;-75
2022/07/29 00:31:35;;;;;;;5.55;3.22;;;;;;;13.81;54.66;100492.38;2073249;84;21073;-75
2022/07/29 00:37:56;;;;;;;7.33;3.20;;;;;;;13.66;55.27;100499.00;2072237;84;21653;-75
2022/07/29 00:40:58;;;;;;;6.65;3.00;;;;;;;13.53;55.48;100499.56;2072910;85;21567;-75
2022/07/29 00:43:59;;;;;;;10.68;3.85;;;;;;;13.48;55.73;100491.77;2073161;85;21548;-75
2022/07/29 00:46:59;;;;;;;7.10;3.20;;;;;;;13.45;55.83;100488.95;2071752;85;20982;-75
2022/07/29 00:50:01;;;;;;;7.78;3.33;;;;;;;13.42;55.89;100487.47;2072177;84;21107;-75
2022/07/29 00:53:05;;;;;;;7.97;3.22;;;;;;;13.38;55.92;100482.69;2073764;84;20998;-75
2022/07/29 00:56:06;;;;;;;5.80;3.35;;;;;;;13.32;56.13;100491.36;2073040;85;21025;-76
2022/07/29 00:59:07;;;;;;;14.07;3.75;;;;;;;13.29;56.28;100483.72;2072976;85;21473;-75
2022/07/29 01:02:08;;;;;;;5.62;3.27;;;;;;;13.32;56.34;100481.55;2074788;85;21683;-75
2022/07/29 01:05:11;;;;;;;6.72;3.12;;;;;;;13.28;56.33;100481.56;2074017;84;21659;-75
2022/07/29 01:08:15;;;;;;;5.83;3.37;;;;;;;13.21;56.49;100485.41;2071654;84;21045;-76
2022/07/29 01:11:17;;;;;;;10.90;3.60;;;;;;;13.14;56.91;100479.11;2074118;85;20994;-75
2022/07/29 01:14:19;;;;;;;11.83;3.20;;;;;;;13.05;57.10;100475.34;2071198;84;21046;-75
2022/07/29 01:17:28;;;;;;;5.17;3.62;;;;;;;12.98;57.17;100482.70;2049032;86;21119;-77
2022/07/29 01:21:16;;;;;;;5.90;2.70;;;;;;;12.93;57.52;100482.89;2060447;85;21080;-75
2022/07/29 01:24:54;;;;;;;7.67;3.22;;;;;;;12.88;57.78;100488.72;2072562;84;21076;-75
2022/07/29 01:28:23;;;;;;;5.60;3.30;;;;;;;12.83;58.00;100489.73;2073073;84;20994;-77
2022/07/29 01:31:45;;;;;;;7.33;3.27;;;;;;;12.76;58.20;100489.60;2057545;84;21536;-75
2022/07/29 01:35:10;;;;;;;4.05;3.00;;;;;;;12.76;58.40;100480.79;2074315;85;21069;-74
2022/07/29 01:38:24;;;;;;;10.45;4.30;;;;;;;12.79;58.59;100477.27;2071815;84;21018;-75
2022/07/29 01:41:29;;;;;;;6.47;3.45;;;;;;;12.76;58.60;100476.29;2073598;85;21563;-75
2022/07/29 01:44:57;;;;;;;11.05;3.80;;;;;;;12.74;58.76;100474.80;2071889;85;21002;-75
2022/07/29 01:48:21;;;;;;;7.90;3.55;;;;;;;12.66;58.93;100470.33;2071300;85;21054;-76
2022/07/29 01:51:31;;;;;;;7.17;3.45;;;;;;;12.62;59.27;100472.19;2073847;85;21048;-75
2022/07/29 01:54:55;;;;;;;5.58;3.33;;;;;;;12.63;59.46;100474.66;2073015;85;21481;-74
2022/07/29 01:57:59;;;;;;;11.38;3.85;;;;;;;12.65;59.44;100467.85;2073098;84;21005;-77
2022/07/29 02:01:01;;;;;;;8.58;4.10;;;;;;;12.65;59.53;100463.86;2071295;85;21001;-77
2022/07/29 02:04:06;;;;;;;12.18;3.95;;;;;;;12.61;59.58;100465.19;2071756;85;21128;-75
2022/07/29 02:07:11;;;;;;;8.75;3.65;;;;;;;12.58;59.93;100461.03;2071921;84;21528;-75
2022/07/29 02:10:14;;;;;;;6.40;3.42;;;;;;;12.62;60.21;100466.86;2071736;84;21017;-75
2022/07/29 02:13:18;;;;;;;6.60;2.98;;;;;;;12.64;60.28;100463.51;2070321;85;21052;-74
2022/07/29 02:16:25;;;;;;;9.43;3.58;;;;;;;12.65;60.20;100464.69;2070996;84;21057;-74
2022/07/29 02:19:28;;;;;;;7.78;3.40;;;;;;;12.68;60.25;100452.86;2072275;85;21331;-75
2022/07/29 02:22:31;;;;;;;5.45;3.10;;;;;;;12.70;60.27;100456.19;2071176;84;21076;-75
2022/07/29 02:25:32;;;;;;;10.10;3.67;;;;;;;12.69;60.25;100457.17;2073163;84;21076;-75
2022/07/29 02:28:34;;;;;;;6.53;3.60;;;;;;;12.69;60.21;100456.66;2071591;85;21033;-77
2022/07/29 02:31:36;;;;;;;8.50;3.45;;;;;;;12.69;60.24;100455.84;2071304;84;21148;-75
2022/07/29 02:34:40;;;;;;;7.08;3.72;;;;;;;12.69;60.30;100454.52;2072821;84;21026;-75
2022/07/29 02:37:44;;;;;;;9.23;3.65;;;;;;;12.67;60.26;100444.05;2073122;85;22313;-76
2022/07/29 02:40:46;;;;;;;6.37;3.30;;;;;;;12.64;60.37;100452.38;2073140;85;21021;-75
2022/07/29 02:43:52;;;;;;;6.67;3.50;;;;;;;12.62;60.53;100449.56;2072207;85;21521;-76
2022/07/29 02:47:21;;;;;;;10.88;3.52;;;;;;;12.62;60.69;100436.25;2072889;84;21108;-74
2022/07/29 02:50:34;;;;;;;11.70;3.87;;;;;;;12.63;60.75;100445.89;2069762;84;21002;-75
2022/07/29 02:53:36;;;;;;;7.60;3.62;;;;;;;12.65;60.85;100446.55;2071712;85;21001;-74
2022/07/29 02:56:40;;;;;;;5.92;3.40;;;;;;;12.66;60.88;100447.70;2071396;84;21112;-75
2022/07/29 02:59:44;;;;;;;5.60;3.60;;;;;;;12.69;60.86;100444.69;2071335;85;21096;-75
2022/07/29 03:02:49;;;;;;;10.23;4.20;;;;;;;12.74;60.89;100445.00;2073491;85;21049;-75
2022/07/29 03:05:58;;;;;;;8.43;3.60;;;;;;;12.78;60.86;100447.66;2070564;84;20990;-76
2022/07/29 03:09:00;;;;;;;7.65;3.10;;;;;;;12.78;60.83;100446.81;2072480;84;21065;-76
2022/07/29 03:12:02;;;;;;;5.90;2.90;;;;;;;12.71;61.01;100441.86;2073506;85;21005;-76
2022/07/29 03:15:08;;;;;;;10.80;3.95;;;;;;;12.61;61.16;100447.88;2052882;86;21536;-77
2022/07/29 03:18:10;;;;;;;7.28;3.02;;;;;;;12.49;61.36;100450.91;2073127;84;21088;-76
2022/07/29 03:21:11;;;;;;;7.42;3.37;;;;;;;12.48;61.51;100444.45;2074167;85;21642;-76
2022/07/29 03:24:28;;;;;;;8.88;3.40;;;;;;;12.50;61.70;100449.08;2073018;85;21108;-76
2022/07/29 03:27:29;;;;;;;6.28;3.15;;;;;;;12.49;61.79;100449.58;2086044;84;21053;-76
2022/07/29 03:30:30;;;;;;;5.65;3.12;;;;;;;12.46;62.13;100453.92;2093582;84;21108;-76
2022/07/29 03:33:31;;;;;;;7.55;3.20;;;;;;;12.48;62.23;100455.09;2094997;84;21137;-76
2022/07/29 03:36:32;;;;;;;8.30;3.85;;;;;;;12.51;62.21;100461.41;2097472;84;21045;-76
2022/07/29 03:39:39;;;;;;;8.65;3.20;;;;;;;12.50;62.30;100461.91;2099816;84;20969;-76
2022/07/29 03:42:42;;;;;;;10.13;3.92;;;;;;;12.48;62.54;100461.23;2092310;84;21561;-76
2022/07/29 03:45:47;;;;;;;9.90;3.52;;;;;;;12.56;62.55;100463.87;2096452;84;22279;-76
2022/07/29 03:48:53;;;;;;;7.72;3.42;;;;;;;12.62;62.62;100461.55;2094424;84;21052;-77
2022/07/29 03:51:55;;;;;;;6.17;3.37;;;;;;;12.64;62.76;100466.17;2098734;84;20989;-76
2022/07/29 03:54:56;;;;;;;6.00;3.20;;;;;;;12.79;62.90;100463.96;2098502;84;21607;-75
2022/07/29 03:57:58;;;;;;;9.00;3.58;;;;;;;13.08;62.96;100463.82;2093709;83;21135;-77
2022/07/29 04:00:59;;;;;;;8.70;2.98;;;;;;;13.37;62.90;100461.84;2094114;84;21112;-79
2022/07/29 04:04:04;;;;;;;14.30;3.27;;;;;;;13.61;62.80;100466.70;2094046;83;21013;-77
2022/07/29 04:07:05;;;;;;;7.35;3.40;;;;;;;13.89;62.68;100477.14;2097005;84;21067;-76
2022/07/29 04:10:08;;;;;;;7.70;3.27;;;;;;;14.30;62.17;100479.44;2092140;84;21135;-76
2022/07/29 04:13:09;;;;;;;9.73;3.50;;;;;;;14.65;61.71;100481.09;2092659;84;21045;-75
2022/07/29 04:16:10;;;;;;;6.58;3.52;;;;;;;14.84;61.21;100481.53;2095669;83;21010;-76
2022/07/29 04:19:11;;;;;;;6.00;3.50;;;;;;;15.08;60.87;100482.56;2096945;83;21108;-76
2022/07/29 04:22:12;;;;;;;6.08;3.47;;;;;;;15.30;60.68;100481.28;2095017;84;21163;-76
2022/07/29 04:25:13;;;;;;;10.75;3.45;;;;;;;15.70;60.37;100475.86;2097941;84;21009;-76
2022/07/29 04:28:14;;;;;;;4.65;3.10;;;;;;;16.21;59.84;100478.33;2075839;84;21041;-76
2022/07/29 04:31:15;;;;;;;4.12;2.98;;;;;;;16.62;59.17;100476.25;2072075;84;21057;-77
2022/07/29 04:34:16;;;;;;;8.03;2.92;;;;;;;17.02;58.56;100473.27;2072432;85;21065;-78
2022/07/29 04:37:17;;;;;;;5.90;3.52;;;;;;;17.51;58.16;100461.13;2070942;84;21065;-76
2022/07/29 04:40:19;;;;;;;17.00;3.62;;;;;;;17.99;57.64;100460.98;2072821;84;21608;-77
2022/07/29 04:43:20;;;;;;;6.97;3.08;;;;;;;18.45;56.78;100456.91;2070430;85;20998;-76
2022/07/29 04:46:21;;;;;;;3.37;2.75;;;;;;;18.84;56.45;100459.70;2072488;85;20985;-74
2022/07/29 04:49:22;;;;;;;6.03;3.08;;;;;;;19.22;55.50;100456.53;2073567;85;21080;-77
2022/07/29 04:52:23;;;;;;;3.52;2.85;;;;;;;19.52;55.26;100453.27;2071958;84;21002;-77
2022/07/29 04:55:25;;;;;;;5.37;2.65;;;;;;;19.84;54.05;100458.13;2071223;85;21046;-76
2022/07/29 04:58:26;;;;;;;7.30;3.25;;;;;;;20.05;54.12;100463.66;2073048;85;21017;-76
2022/07/29 05:01:27;;;;;;;9.98;2.60;;;;;;;20.26;53.31;100459.72;2073276;84;21108;-77
2022/07/29 05:04:28;;;;;;;3.60;2.62;;;;;;;20.56;51.89;100453.66;2073727;84;21017;-77
2022/07/29 05:07:29;;;;;;;9.10;3.22;;;;;;;20.60;51.58;100454.31;2071561;84;21139;-77
2022/07/29 05:10:30;;;;;;;6.58;2.77;;;;;;;20.85;50.07;100457.45;2073563;85;21001;-80
2022/07/29 05:13:31;;;;;;;7.83;2.70;;;;;;;20.93;49.74;100453.11;2072271;84;21463;-77
2022/07/29 05:16:33;;;;;;;7.60;2.55;;;;;;;20.95;48.34;100456.41;2074987;84;20993;-75
2022/07/29 05:19:34;;;;;;;5.65;2.70;;;;;;;21.01;48.68;100451.45;2069018;84;21023;-73
2022/07/29 05:22:35;;;;;;;4.75;2.70;;;;;;;21.07;48.22;100451.06;2071531;84;21116;-75
2022/07/29 05:25:37;;;;;;;5.80;2.67;;;;;;;20.80;48.32;100445.98;2071696;85;21079;-74
2022/07/29 05:28:38;;;;;;;6.67;2.85;;;;;;;20.93;48.42;100445.02;2090661;84;20982;-75
2022/07/29 05:31:39;;;;;;;5.58;2.22;;;;;;;21.13;47.96;100445.28;2092614;84;21072;-74
2022/07/29 05:34:41;;;;;;;6.87;2.72;;;;;;;21.28;47.29;100442.98;2095371;83;21465;-73
2022/07/29 05:37:42;;;;;;;4.12;2.47;;;;;;;21.59;47.36;100442.45;2091486;84;21725;-75
2022/07/29 05:40:43;;;;;;;4.42;2.37;;;;;;;21.47;46.26;100446.48;2092653;83;21060;-75
2022/07/29 05:43:45;;;;;;;7.83;3.10;;;;;;;21.01;46.23;100443.89;2096012;84;21512;-74
2022/07/29 05:46:45;;;;;;;8.10;2.67;;;;;;;20.59;46.03;100452.67;2093565;84;21076;-76
2022/07/29 05:49:47;;;;;;;4.75;2.60;;;;;;;20.33;46.37;100444.33;2092756;84;20993;-77
2022/07/29 05:52:48;;;;;;;6.42;2.60;;;;;;;20.15;46.77;100453.19;2094005;84;21052;-77
2022/07/29 05:55:50;;;;;;;6.03;2.83;;;;;;;20.07;47.19;100445.91;2095205;83;21782;-76
2022/07/29 05:58:52;;;;;;;13.88;2.90;;;;;;;19.79;47.38;100446.36;2091672;84;21461;-76
2022/07/29 06:01:53;;;;;;;10.15;2.65;;;;;;;19.52;47.84;100444.37;2094430;83;21667;-76
2022/07/29 06:04:54;;;;;;;4.40;2.40;;;;;;;19.55;48.28;100441.24;2094922;83;21468;-77
2022/07/29 06:07:55;;;;;;;7.42;2.52;;;;;;;19.82;48.36;100441.38;2094609;84;21083;-77
2022/07/29 06:10:56;;;;;;;4.80;2.50;;;;;;;19.77;48.37;100439.86;2093759;83;21042;-77
2022/07/29 06:13:57;;;;;;;7.12;2.37;;;;;;;19.69;48.40;100440.13;2095690;83;21055;-77
2022/07/29 06:16:58;;;;;;;5.33;2.80;;;;;;;19.77;48.68;100439.05;2091948;84;20965;-77
2022/07/29 06:19:59;;;;;;;4.55;2.05;;;;;;;20.12;48.92;100441.52;2091449;84;21444;-77
2022/07/29 06:23:00;;;;;;;6.20;2.27;;;;;;;20.23;47.95;100435.92;2091281;83;21361;-77
2022/07/29 06:26:02;;;;;;;3.35;1.85;;;;;;;20.17;48.13;100438.69;2091691;83;21095;-77
2022/07/29 06:29:03;;;;;;;4.55;2.35;;;;;;;20.14;47.70;100442.12;2074652;84;21132;-78
2022/07/29 06:32:05;;;;;;;6.33;2.77;;;;;;;20.16;47.92;100437.88;2073397;84;21465;-77
2022/07/29 06:35:07;;;;;;;5.83;2.87;;;;;;;20.32;47.87;100441.31;2074180;84;21114;-76
2022/07/29 06:38:09;;;;;;;3.17;2.40;;;;;;;20.70;47.39;100443.02;2071807;84;21100;-75
2022/07/29 06:41:12;;;;;;;4.03;2.30;;;;;;;21.05;46.96;100445.06;2069565;85;21065;-78
2022/07/29 06:44:14;;;;;;;7.42;2.37;;;;;;;21.52;45.96;100437.17;2072339;84;21006;-75
2022/07/29 06:47:15;;;;;;;5.28;2.10;;;;;;;21.74;44.98;100440.16;2071864;84;20982;-75
2022/07/29 06:50:16;;;;;;;4.67;2.02;;;;;;;21.92;44.90;100437.88;2071689;85;21572;-79
2022/07/29 06:53:17;;;;;;;2.85;1.92;;;;;;;22.08;44.62;100437.72;2072372;85;21516;-75
2022/07/29 06:56:18;;;;;;;2.70;1.95;;;;;;;22.29;43.65;100450.66;2071117;85;21025;-75
2022/07/29 06:59:19;;;;;;;3.92;1.92;;;;;;;22.42;43.88;100438.78;2070903;84;21151;-75
2022/07/29 07:02:21;;;;;;;6.10;2.12;;;;;;;22.35;43.06;100440.23;2070899;84;21090;-73
2022/07/29 07:05:22;;;;;;;3.35;2.02;;;;;;;22.20;43.25;100440.45;2072843;84;22134;-69
2022/07/29 07:08:23;;;;;;;4.40;2.08;;;;;;;22.17;43.20;100447.11;2071937;84;21061;-70
2022/07/29 07:11:24;;;;;;;7.00;2.10;;;;;;;22.27;42.75;100445.19;2071543;84;21057;-74
2022/07/29 07:14:27;;;;;;;5.83;1.80;;;;;;;22.44;42.68;100442.08;2072022;84;21060;-71
2022/07/29 07:17:28;;;;;;;4.83;1.95;;;;;;;22.55;42.38;100442.59;2071711;86;21606;-70
2022/07/29 07:20:29;;;;;;;5.05;2.30;;;;;;;22.46;42.52;100437.23;2072028;84;21064;-71
2022/07/29 07:23:33;;;;;;;4.62;2.00;;;;;;;22.40;42.57;100440.89;2069382;85;21053;-70
2022/07/29 07:26:34;;;;;;;3.10;1.60;;;;;;;22.41;42.54;100443.87;2071467;85;21024;-70
2022/07/29 07:29:36;;;;;;;3.05;2.02;;;;;;;22.44;42.79;100437.18;2071978;84;21062;-70
2022/07/29 07:32:37;;;;;;;3.98;2.12;;;;;;;22.41;41.76;100431.72;2074010;84;21049;-69
2022/07/29 07:35:38;;;;;;;3.12;1.87;;;;;;;22.30;41.65;100427.99;2073055;85;20966;-70
2022/07/29 07:38:39;;;;;;;6.20;2.30;;;;;;;22.35;42.33;100432.13;2071756;85;21017;-70
2022/07/29 07:41:40;;;;;;;7.17;2.30;;;;;;;22.66;42.49;100430.09;2073688;84;21699;-72
2022/07/29 07:44:41;;;;;;;7.95;2.10;;;;;;;22.85;41.95;100436.69;2072821;85;21045;-73
2022/07/29 07:47:42;;;;;;;3.85;1.98;;;;;;;23.11;40.98;100439.39;2073554;85;21001;-72
2022/07/29 07:50:44;;;;;;;2.58;1.82;;;;;;;23.22;41.30;100431.75;2073171;84;21094;-72
2022/07/29 07:53:49;;;;;;;6.35;2.02;;;;;;;23.24;40.53;100431.80;2073604;85;21044;-71
2022/07/29 07:56:49;;;;;;;5.03;2.10;;;;;;;23.30;41.01;100422.42;2073307;85;21659;-70
2022/07/29 07:59:50;;;;;;;6.12;2.35;;;;;;;23.30;40.84;100430.54;2071624;85;21060;-73
2022/07/29 08:02:51;;;;;;;4.25;1.80;;;;;;;23.21;40.95;100425.52;2072002;84;21612;-75
2022/07/29 08:05:54;;;;;;;4.72;2.47;;;;;;;23.18;40.80;100430.06;2073453;84;21512;-73
2022/07/29 08:08:55;;;;;;;2.87;2.00;;;;;;;23.10;40.48;100422.33;2072347;85;21477;-73
2022/07/29 08:11:59;;;;;;;5.22;2.00;;;;;;;23.20;41.35;100417.63;2073928;85;21033;-71
2022/07/29 08:15:00;;;;;;;8.03;2.20;;;;;;;23.34;40.82;100423.05;2071973;84;21073;-74
2022/07/29 08:18:02;;;;;;;5.53;2.08;;;;;;;23.48;40.30;100424.38;2074079;85;21575;-75
2022/07/29 08:21:04;;;;;;;5.50;2.37;;;;;;;23.56;40.41;100421.78;2072033;85;21678;-71
2022/07/29 08:27:28;;;;;;;6.03;2.00;;;;;;;23.63;40.28;100421.10;2052866;85;21866;-72
2022/07/29 08:30:29;;;;;;;6.85;2.58;;;;;;;23.84;40.12;100429.58;2072665;84;21533;-70
2022/07/29 08:33:30;;;;;;;6.37;2.00;;;;;;;24.12;39.62;100422.69;2072608;85;21049;-73
2022/07/29 08:36:33;;;;;;;13.48;2.50;;;;;;;24.31;39.42;100429.20;2072709;85;21100;-70
2022/07/29 08:39:34;;;;;;;2.47;2.08;;;;;;;24.40;38.81;100418.20;2072903;85;21006;-68
2022/07/29 08:42:35;;;;;;;4.95;2.37;;;;;;;24.75;38.42;100426.02;2073151;84;21044;-71
2022/07/29 08:45:46;;;;;;;3.92;1.90;;;;;;;25.01;37.97;100428.47;2073587;85;22520;-69
2022/07/29 08:48:48;;;;;;;13.08;2.50;;;;;;;25.11;38.20;100415.53;2071879;84;21450;-70
2022/07/29 08:51:50;;;;;;;3.77;2.05;;;;;;;25.24;38.51;100415.16;2073978;84;21382;-70
2022/07/29 08:54:53;;;;;;;4.20;2.12;;;;;;;25.13;37.56;100416.65;2071848;84;20986;-70
2022/07/29 08:57:55;;;;;;;6.00;2.10;;;;;;;24.83;37.79;100408.44;2072162;85;21009;-70
2022/07/29 09:00:57;;;;;;;10.93;2.67;;;;;;;24.63;38.41;100417.70;2072859;84;22235;-72
2022/07/29 09:04:00;;;;;;;14.25;2.45;;;;;;;24.54;38.84;100420.86;2072214;85;21603;-72
2022/07/29 09:07:05;;;;;;;5.75;2.27;;;;;;;24.47;39.16;100417.53;2073356;85;21080;-72
2022/07/29 09:10:08;;;;;;;3.42;1.75;;;;;;;24.48;39.27;100408.30;2071860;85;21107;-74
2022/07/29 09:13:09;;;;;;;5.85;2.37;;;;;;;24.39;39.24;100409.80;2071459;85;21069;-71
2022/07/29 09:16:11;;;;;;;5.97;2.05;;;;;;;24.32;39.13;100410.50;2072520;85;21092;-73
2022/07/29 09:19:25;;;;;;;8.00;2.02;;;;;;;24.33;39.41;100414.88;2071328;85;21378;-71
2022/07/29 09:22:31;;;;;;;12.73;2.55;;;;;;;24.45;39.68;100402.58;2070460;85;21026;-74
2022/07/29 09:25:38;;;;;;;3.20;2.02;;;;;;;24.66;39.26;100413.13;2073781;84;21028;-71
2022/07/29 09:28:42;;;;;;;4.70;2.27;;;;;;;24.63;38.88;100400.89;2061004;84;21140;-72
2022/07/29 09:31:50;;;;;;;5.05;1.92;;;;;;;24.65;39.31;100402.00;2062991;84;21028;-73
2022/07/29 09:34:52;;;;;;;1.77;1.50;;;;;;;24.80;38.39;100411.13;2088672;84;21022;-71
2022/07/29 09:37:54;;;;;;;7.10;1.90;;;;;;;24.93;38.78;100397.71;2092413;83;21552;-71
2022/07/29 09:41:01;;;;;;;4.67;2.10;;;;;;;24.98;38.14;100402.39;2090541;84;21038;-72
2022/07/29 09:44:02;;;;;;;3.85;1.55;;;;;;;25.01;38.58;100396.45;2089079;84;21012;-73
2022/07/29 09:47:08;;;;;;;4.15;1.85;;;;;;;25.06;38.92;100403.29;2090247;83;21088;-75
2022/07/29 09:50:09;;;;;;;2.27;2.08;;;;;;;25.07;38.58;100402.20;2096237;84;21032;-74
2022/07/29 09:53:11;;;;;;;5.35;2.22;;;;;;;25.04;38.19;100393.22;2087730;84;21041;-71
2022/07/29 09:56:14;;;;;;;5.20;2.00;;;;;;;25.03;38.51;100395.11;2092775;84;21144;-72
2022/07/29 09:59:16;;;;;;;7.97;2.00;;;;;;;25.02;38.38;100383.14;2091190;84;21076;-72
2022/07/29 10:02:17;;;;;;;8.88;2.45;;;;;;;24.99;38.50;100385.83;2093448;84;21075;-77
2022/07/29 10:05:25;;;;;;;8.65;2.22;;;;;;;24.90;38.83;100386.02;2089964;84;21029;-78
2022/07/29 10:08:26;;;;;;;4.17;2.42;;;;;;;24.95;38.84;100387.97;2091513;84;21032;-80
2022/07/29 10:11:27;;;;;;;4.47;2.00;;;;;;;24.85;38.55;100383.78;2091209;83;21569;-78
2022/07/29 10:14:32;;;;;;;4.87;2.10;;;;;;;24.71;38.69;100377.92;2091748;84;21524;-76
2022/07/29 10:17:33;;;;;;;4.72;1.87;;;;;;;24.64;38.81;100380.84;2091128;83;21525;-76
2022/07/29 10:20:35;;;;;;;4.65;2.10;;;;;;;24.60;38.89;100375.63;2094324;83;21613;-74
2022/07/29 10:23:38;;;;;;;6.50;2.00;;;;;;;24.63;39.30;100373.77;2095295;83;21028;-72
2022/07/29 10:26:40;;;;;;;3.52;2.10;;;;;;;24.64;38.87;100377.29;2091779;83;21073;-73
2022/07/29 10:29:44;;;;;;;6.80;2.30;;;;;;;24.62;38.52;100384.34;2091820;84;21571;-74
2022/07/29 10:33:14;;;;;;;4.25;2.22;;;;;;;24.63;38.70;100370.23;2095307;83;21132;-75
2022/07/29 10:36:42;;;;;;;3.70;1.75;;;;;;;24.71;38.55;100369.25;2094214;83;21675;-80
2022/07/29 10:43:37;;;;;;;5.83;2.50;;;;;;;24.76;38.37;100365.23;2077570;84;21179;-72
2022/07/29 10:46:40;;;;;;;2.62;1.98;;;;;;;24.68;38.46;100374.37;2096214;83;21063;-74
2022/07/29 10:49:47;;;;;;;2.90;1.85;;;;;;;24.71;38.59;100369.78;2093205;83;21056;-73
2022/07/29 10:52:56;;;;;;;5.65;2.12;;;;;;;24.72;38.95;100369.55;2089546;84;21084;-73
2022/07/29 10:55:57;;;;;;;4.62;2.45;;;;;;;24.71;38.54;100371.14;2095649;84;21096;-72
2022/07/29 10:59:26;;;;;;;4.95;2.22;;;;;;;24.71;38.65;100367.07;2090128;84;21052;-73
2022/07/29 11:02:45;;;;;;;7.87;2.52;;;;;;;24.80;38.80;100366.89;2090144;84;21590;-73
2022/07/29 11:05:56;;;;;;;7.72;2.70;;;;;;;24.82;39.02;100371.00;2092254;84;21125;-81
2022/07/29 11:09:19;;;;;;;4.58;2.10;;;;;;;24.77;38.62;100372.30;2093246;84;21044;-74
2022/07/29 11:12:45;;;;;;;13.00;2.98;;;;;;;24.81;39.24;100361.77;2094670;84;21009;-74
2022/07/29 11:15:57;;;;;;;6.92;2.60;;;;;;;24.99;39.45;100361.40;2093287;84;21088;-75
2022/07/29 11:19:20;;;;;;;6.37;2.50;;;;;;;25.21;39.01;100364.63;2090253;84;21635;-74
2022/07/29 11:22:35;;;;;;;5.42;2.50;;;;;;;25.36;38.86;100363.39;2066226;84;21056;-75
2022/07/29 11:25:36;;;;;;;2.55;2.20;;;;;;;25.47;38.54;100354.80;2094410;84;21096;-73
2022/07/29 11:29:03;;;;;;;3.20;2.15;;;;;;;25.51;38.25;100354.58;2089102;84;21077;-79
2022/07/29 11:32:13;;;;;;;5.45;2.22;;;;;;;25.57;37.86;100344.02;2071777;84;21064;-74
2022/07/29 11:35:22;;;;;;;7.47;2.40;;;;;;;25.59;38.04;100353.25;2072040;85;21068;-75
2022/07/29 11:38:26;;;;;;;3.62;1.95;;;;;;;25.63;37.72;100347.59;2072244;85;21073;-74
2022/07/29 11:41:29;;;;;;;4.20;2.60;;;;;;;25.60;38.09;100357.62;2048534;85;21076;-76
2022/07/29 11:45:08;;;;;;;6.67;2.20;;;;;;;25.61;37.97;100347.02;2071236;84;21060;-77
2022/07/29 11:48:16;;;;;;;6.03;2.10;;;;;;;25.69;38.10;100362.84;2071879;85;21080;-80
2022/07/29 11:51:18;;;;;;;6.05;2.08;;;;;;;25.65;38.29;100354.41;2073665;84;21547;-80
2022/07/29 11:54:30;;;;;;;3.25;2.25;;;;;;;25.76;38.16;100356.63;2072415;84;21029;-80
2022/07/29 11:57:34;;;;;;;5.25;2.40;;;;;;;25.80;37.64;100350.16;2073006;85;21097;-79
2022/07/29 12:00:39;;;;;;;5.33;2.35;;;;;;;25.82;37.73;100344.73;2072948;84;20974;-78
2022/07/29 12:03:40;;;;;;;7.20;2.70;;;;;;;25.93;37.54;100340.18;2074086;84;21056;-79
2022/07/29 12:06:42;;;;;;;3.12;2.40;;;;;;;25.86;37.06;100355.92;2072545;85;21022;-79
2022/07/29 12:09:53;;;;;;;4.37;2.42;;;;;;;25.74;37.69;100342.50;2072101;85;21032;-76
2022/07/29 12:12:54;;;;;;;4.53;2.37;;;;;;;25.71;37.51;100338.95;2071821;84;20970;-76
2022/07/29 12:15:58;;;;;;;4.87;2.10;;;;;;;25.70;37.63;100342.73;2072335;84;21563;-76
2022/07/29 12:19:04;;;;;;;5.17;2.30;;;;;;;25.86;37.33;100330.91;2073510;84;21068;-81
2022/07/29 12:22:06;;;;;;;7.08;2.25;;;;;;;25.96;37.23;100325.25;2049715;85;21119;-86
2022/07/29 12:25:18;;;;;;;6.80;2.80;;;;;;;26.07;37.64;100331.02;2071492;84;21108;-74
2022/07/29 12:28:22;;;;;;;7.72;2.98;;;;;;;26.26;37.82;100333.55;2052160;84;21641;-76
2022/07/29 12:31:23;;;;;;;4.78;2.62;;;;;;;26.37;37.87;100325.71;2088163;84;21551;-78
2022/07/29 12:34:27;;;;;;;4.15;2.25;;;;;;;26.55;38.00;100320.90;2091780;83;21504;-77
2022/07/29 12:37:28;;;;;;;4.80;2.27;;;;;;;26.61;37.93;100315.77;2065457;84;21055;-84
2022/07/29 12:40:30;;;;;;;4.28;2.45;;;;;;;26.74;37.39;100312.51;2089438;84;20989;-74
2022/07/29 12:43:31;;;;;;;7.67;2.72;;;;;;;26.83;37.69;100324.52;2089962;83;21051;-80
2022/07/29 12:46:33;;;;;;;8.73;2.62;;;;;;;26.69;37.33;100311.69;2091155;83;21101;-78
2022/07/29 12:49:34;;;;;;;8.50;2.60;;;;;;;26.50;37.81;100324.95;2093197;84;21574;-81
2022/07/29 12:52:35;;;;;;;6.50;2.25;;;;;;;26.31;37.82;100310.47;2093044;84;20992;-77
2022/07/29 12:55:43;;;;;;;5.17;2.58;;;;;;;26.17;37.97;100306.60;2095324;83;21080;-78
2022/07/29 12:58:44;;;;;;;3.15;2.33;;;;;;;26.00;37.82;100312.78;2091105;84;21060;-82
2022/07/29 13:01:48;;;;;;;3.40;2.55;;;;;;;25.98;38.04;100304.87;2092979;84;21029;-77
2022/07/29 13:04:58;;;;;;;3.85;2.40;;;;;;;25.98;38.25;100301.34;2092523;84;21078;-78
2022/07/29 13:08:13;;;;;;;3.10;2.27;;;;;;;26.02;38.01;100295.67;2095992;84;21383;-76
2022/07/29 13:11:36;;;;;;;6.72;3.10;;;;;;;26.00;38.40;100285.59;2091949;83;21790;-77
2022/07/29 13:14:43;;;;;;;7.67;2.80;;;;;;;25.99;38.96;100292.09;2093402;84;21009;-80
2022/07/29 13:17:44;;;;;;;6.40;3.00;;;;;;;26.01;38.95;100288.03;2092303;84;21076;-76
2022/07/29 13:20:45;;;;;;;3.92;2.50;;;;;;;26.07;39.22;100284.28;2091811;83;21053;-79
2022/07/29 13:23:46;;;;;;;3.90;2.22;;;;;;;26.13;38.97;100288.65;2098338;84;21088;-76
2022/07/29 13:26:47;;;;;;;5.92;2.50;;;;;;;26.08;38.61;100295.97;2090997;84;21148;-74
2022/07/29 13:29:51;;;;;;;7.75;3.12;;;;;;;26.00;38.41;100282.88;2096092;83;21068;-77
2022/07/29 13:32:53;;;;;;;3.72;2.50;;;;;;;25.89;38.37;100281.46;2094753;83;21091;-77
2022/07/29 13:35:54;;;;;;;7.67;2.58;;;;;;;25.87;38.65;100281.45;2092959;83;21049;-82
2022/07/29 13:38:55;;;;;;;4.92;3.00;;;;;;;25.92;38.85;100271.41;2095680;83;21056;-81
2022/07/29 13:41:56;;;;;;;4.58;2.77;;;;;;;26.04;38.64;100273.91;2094275;84;21013;-86
2022/07/29 13:44:57;;;;;;;5.47;2.77;;;;;;;26.07;38.70;100261.69;2094531;83;20990;-76
2022/07/29 13:47:58;;;;;;;10.75;2.92;;;;;;;26.22;38.28;100255.51;2093071;83;21064;-73
2022/07/29 13:50:59;;;;;;;4.00;2.30;;;;;;;26.18;38.36;100247.05;2094482;84;21488;-73
2022/07/29 13:54:04;;;;;;;4.47;2.67;;;;;;;26.22;37.99;100248.16;2096071;83;21041;-78
2022/07/29 13:57:05;;;;;;;3.50;2.40;;;;;;;26.23;38.67;100253.87;2092888;83;21044;-81
2022/07/29 14:00:10;;;;;;;5.47;2.60;;;;;;;26.26;38.79;100260.13;2094789;84;21033;-74
2022/07/29 14:03:11;;;;;;;6.00;2.12;;;;;;;26.16;38.24;100256.03;2096582;84;21028;-76
2022/07/29 14:06:13;;;;;;;5.00;2.25;;;;;;;26.07;38.28;100265.25;2095649;84;20969;-78
2022/07/29 14:09:16;;;;;;;6.47;2.67;;;;;;;26.03;38.63;100266.84;2096048;84;21118;-75
2022/07/29 14:12:19;;;;;;;8.00;2.80;;;;;;;25.98;38.67;100259.21;2065803;84;22296;-77
2022/07/29 14:15:21;;;;;;;5.22;2.37;;;;;;;25.98;38.38;100253.77;2045038;84;21039;-76
2022/07/29 14:18:23;;;;;;;4.17;2.80;;;;;;;25.95;38.63;100259.20;2068909;84;21048;-79
2022/07/29 14:21:24;;;;;;;7.00;2.70;;;;;;;25.94;38.58;100249.42;2090878;84;21044;-77
2022/07/29 14:24:25;;;;;;;4.85;2.80;;;;;;;25.95;38.90;100246.97;2092632;83;21134;-75
2022/07/29 14:27:26;;;;;;;7.45;2.65;;;;;;;26.04;38.78;100247.27;2093937;83;21508;-74